Погода METAR - Новосибирск (Толмачево)

Код аэропорта ICAO:
Кемерово, Абакан, Красноярск, Новосибирск
Код METAR: UNNT 251430Z 00000MPS 9999 NSC 00/M03 Q1029 R07/190065 R34/110070 NOSIG RMK QFE762/1016
TAF UNNT 251400Z 2515/2615 28003MPS 3100 BR SCT003 
     TEMPO 2515/2605 0300 FZFG BKN001 
     FM260500 13005G12MPS 9999 SCT040
       

Погода - Сейчас

Время: 2019-03-25 21:30, местное
Направление ветра: Штиль
Скорость ветра: 0 м/с
Видимость:
Температура: 0°C
Точка росы: -3°C
Атмосферное давление: 1029 гПа

Архив погоды

Время, местное Направление Скорость, м/с Температура, °C Точка росы, °C Давление, гПа
2019-03-25 21:30 Штиль 0 0 -3 1029
2019-03-24 19:30 ЗЮЗ (250°) 3 3 -2 1018
2019-03-24 14:30 СЗ (310°) 3 2 -2 1018
2019-03-22 11:00 Ю (190°) 5 -3 -8 1024
2019-03-22 06:30 Ю (180°) 4 -6 -10 1024
2019-03-20 16:00 ЮЗ (230°) 3 0 -7 1034
2019-03-19 19:30 ЗСЗ (290°) 2 -3 -9 1031
2019-03-18 01:30 З (270°) 2 -12 -13 1028
2019-03-16 13:00 ЗЮЗ (240°) 9 -1 -6 1014
2019-03-16 02:00 ЮЮВ (160°) 4 2 -2 1009
2019-03-15 17:00 ЮЮВ (160°) 6 5 -3 1012
2019-03-13 21:30 ЮЗ (210°) 6 1 -7 1021
2019-03-11 14:30 ЮЗ (210°) 5 -5 -9 1023
2019-03-11 06:00 Ю (180°) 5 -12 -16 1024
2019-03-11 01:00 Ю (180°) 4 -10 -15 1026
2019-03-11 00:30 Ю (180°) 4 -10 -15 1027
2019-03-11 00:00 Ю (190°) 2 -10 -15 1027
2019-03-10 22:30 ЮЮЗ (200°) 5 -7 -14 1027